Flight Track Log - Related Links

Times and Time Zones

All times are in EDT time to prevent confusion due to time zone crossing. See the FLG4099 flight status page for this flight to view local times or setup timezone preferences in your user account.

Time Position Orientation Groundspeed Altitude Reporting Facility
EDT Latitude Longitude Course Direction KTS MPH feet Rate Location/Type
Tue 07:13:25 AM 44.4103 -73.3003 256° West 255 293 7,200  Level Boston Center
Tue 07:14:25 AM 44.3947 -73.4017 258° West 261 300 10,200 2,150 Climbing Boston Center
Tue 07:15:25 AM 44.3772 -73.5178 258° West 292 336 11,500 1,600 Climbing Boston Center
Tue 07:16:25 AM 44.3569 -73.6478 258° West 333 383 13,400 1,900 Climbing Boston Center
Tue 07:17:00 AM 44.3262 -73.9721 256° West  Level FlightAware Approximate
Tue 07:17:25 AM 44.3369 -73.7694 257° West 354 407 15,300  Level Boston Center
Tue 07:18:00 AM 44.3011 -74.1086 256° West  Level FlightAware Approximate
Tue 07:18:25 AM 44.3144 -73.9081 257° West 360 414 17,200  Level Boston Center
Tue 07:19:25 AM 44.2939 -74.0439 258° West 360 414 18,500 1,100 Climbing Boston Center
Tue 07:20:25 AM 44.2667 -74.1969 256° West 365 420 19,400 950 Climbing Boston Center
Tue 07:21:25 AM 44.2458 -74.3353 258° West 389 448 20,400 1,000 Climbing Boston Center
Tue 07:22:25 AM 44.2203 -74.4881 257° West 402 463 21,400 1,000 Climbing Boston Center
Tue 07:23:25 AM 44.1964 -74.6436 258° West 407 468 22,400 1,000 Climbing Boston Center
Tue 07:24:25 AM 44.1725 -74.7964 258° West 413 475 23,400 1,000 Climbing Boston Center
Tue 07:25:25 AM 44.1464 -74.9514 257° West 413 475 24,400 1,000 Climbing Boston Center
Tue 07:26:25 AM 44.1200 -75.1067 257° West 413 475 25,400 1,000 Climbing Boston Center
Tue 07:27:25 AM 44.0933 -75.2586 256° West 413 475 26,400 800 Climbing Boston Center
Tue 07:28:25 AM 44.0686 -75.4136 258° West 413 475 27,000 550 Climbing Boston Center
Tue 07:29:25 AM 44.0417 -75.5681 256° West 413 475 27,500 500 Climbing Boston Center
Tue 07:30:25 AM 44.0122 -75.7283 256° West 418 481 28,000 250 Climbing Boston Center
Tue 07:31:25 AM 43.9867 -75.8886 258° West 423 487 28,000  Level Boston Center
Tue 07:32:25 AM 43.9586 -76.0486 256° West 428 493 28,000  Level Boston Center
Tue 07:33:25 AM 43.9517 -76.2069 267° West 423 487 28,000  Level Boston Center
Tue 07:34:25 AM 43.9461 -76.3708 267° West 423 487 28,000  Level Boston Center
Tue 07:35:25 AM 43.9447 -76.5294 269° West 417 480 28,000  Level Boston Center
Tue 07:36:47 AM 43.9333 -76.7333 266° West 410 472 28,000  Level Toronto Center
Tue 07:37:47 AM 43.9167 -76.9000 262° West 410 472 28,000  Level Toronto Center
Tue 07:38:47 AM 43.9167 -77.0333 270° West 410 472 28,000  Level Toronto Center
Tue 07:39:47 AM 43.9000 -77.2000 262° West 410 472 28,000  Level Toronto Center
Tue 07:40:47 AM 43.9167 -77.3833 277° West 420 483 28,000  Level Toronto Center
Tue 07:41:47 AM 43.8833 -77.5333 253° West 420 483 28,000  Level Toronto Center
Tue 07:42:47 AM 43.8500 -77.6833 253° West 420 483 28,000  Level Toronto Center
Tue 07:43:47 AM 43.8333 -77.8500 262° West 410 472 28,000  Level Toronto Center
Tue 07:44:47 AM 43.8000 -78.0000 253° West 410 472 28,000  Level Toronto Center
Tue 07:45:47 AM 43.7833 -78.1500 261° West 410 472 28,000  Level Toronto Center
Tue 07:46:47 AM 43.7500 -78.3167 255° West 410 472 28,000  Level Toronto Center
Tue 07:47:47 AM 43.7167 -78.4500 251° West 410 472 28,000  Level Toronto Center
Tue 07:48:47 AM 43.7167 -78.6167 270° West 410 472 28,000  Level Toronto Center
Tue 07:49:47 AM 43.6833 -78.7500 251° West 410 472 28,000  Level Toronto Center
Tue 07:50:47 AM 43.6167 -78.9167 241° Southwest 420 483 28,000  Level Toronto Center
Tue 07:51:47 AM 43.5500 -79.0333 232° Southwest 420 483 28,000  Level Toronto Center
Tue 07:52:47 AM 43.4833 -79.1667 235° Southwest 420 483 28,000  Level Toronto Center
Tue 07:53:47 AM 43.4333 -79.3167 245° Southwest 420 483 28,000  Level Toronto Center
Tue 07:54:47 AM 43.3667 -79.4500 236° Southwest 420 483 28,000  Level Toronto Center
Tue 07:55:47 AM 43.3000 -79.5833 236° Southwest 420 483 28,000  Level Toronto Center
Tue 07:56:47 AM 43.2333 -79.7167 236° Southwest 420 483 28,000  Level Toronto Center
Tue 07:57:47 AM 43.1833 -79.8667 245° Southwest 420 483 28,000  Level Toronto Center
Tue 07:58:47 AM 43.1167 -80.0000 236° Southwest 420 483 28,000 -400 Level Toronto Center
Tue 07:59:47 AM 43.0500 -80.1333 236° Southwest 430 495 27,200 -1,150 Descending Toronto Center
Tue 08:00:47 AM 43.0000 -80.2500 240° Southwest 420 483 25,700 -1,600 Descending Toronto Center
Tue 08:01:47 AM 42.9333 -80.3833 236° Southwest 410 472 24,000 -1,350 Descending Toronto Center
Tue 08:02:47 AM 42.8667 -80.5167 236° Southwest 410 472 23,000 -508 Descending Toronto Center
Tue 08:03:45 AM 42.8167 -80.6567 244° Southwest 410 472 23,000  Level Cleveland Center
Tue 08:04:45 AM 42.7581 -80.7839 238° Southwest 405 466 23,000  Level Cleveland Center
Tue 08:05:45 AM 42.7014 -80.9167 240° Southwest 405 466 23,000  Level Cleveland Center
Tue 08:06:45 AM 42.6864 -81.0633 262° West 395 455 23,000  Level Cleveland Center
Tue 08:07:45 AM 42.6711 -81.2158 262° West 409 471 23,000  Level Cleveland Center
Tue 08:08:45 AM 42.6514 -81.3650 260° West 416 479 23,000  Level Cleveland Center
Tue 08:09:45 AM 42.6314 -81.5200 260° West 416 479 23,000 -1,000 Level Cleveland Center
Tue 08:10:45 AM 42.6156 -81.6694 262° West 416 479 21,000 -1,950 Descending Cleveland Center
Tue 08:11:45 AM 42.5997 -81.7989 261° West 409 471 19,100 -1,950 Descending Cleveland Center
Tue 08:12:45 AM 42.5836 -81.9367 261° West 396 456 17,100 -2,050 Descending Cleveland Center
Tue 08:13:45 AM 42.5672 -82.0717 261° West 384 442 15,000 -2,100 Descending Cleveland Center
Tue 08:14:45 AM 42.5486 -82.2122 260° West 384 442 12,900 -2,160 Descending Cleveland Center
Tue 08:15:00 AM 42.5439 -82.2572 262° West 377 434 12,300 -900 Descending Cleveland Center
Tue 08:15:45 AM 42.5322 -82.3469 260° West 378 435 12,000 -212 Descending Cleveland Center
Tue 08:16:25 AM 42.5203 -82.4397 260° West 274 315 12,000  Level Cleveland Center
Tue 08:16:45 AM 42.5178 -82.4592 260° West 347 399 12,000  Level Cleveland Center
Tue 08:17:02 AM 42.5150 -82.5014 265° West 277 319 12,000  Level Cleveland Center
Tue 08:17:45 AM 42.5017 -82.5603 253° West 305 351 12,000  Level Cleveland Center
Tue 08:18:03 AM 42.4861 -82.6047 245° Southwest 298 343 12,000 -500 Level Cleveland Center
Tue 08:18:45 AM 42.4686 -82.6578 246° West 292 336 11,500 -1,075 Descending Cleveland Center
Tue 08:19:10 AM 42.4531 -82.7050 246° West 273 314 10,800 -1,400 Descending Cleveland Center
Tue 08:19:45 AM 42.4356 -82.7467 240° Southwest 280 322 10,100 -1,333 Descending Cleveland Center
Tue 08:20:04 AM 42.4244 -82.7883 250° West 263 303 9,600 -1,300 Descending Cleveland Center
Tue 08:20:45 AM 42.4172 -82.8444 260° West 270 311 8,800 -1,485 Descending Cleveland Center
Tue 08:21:45 AM 42.4047 -82.9425 260° West 264 304 7,100 -1,440 Descending Cleveland Center
Tue 08:22:00 AM 42.4019 -82.9761 264° West 265 305 7,000 -100 Descending Cleveland Center
Tue 08:22:45 AM 42.3922 -83.0375 258° West 264 304 7,000  Level Cleveland Center
Tue 08:23:19 AM 42.3892 -83.0908 266° West 220 253 7,000  Level Cleveland Center
Tue 08:23:45 AM 42.3864 -83.1189 262° West 244 281 7,000 -448 Level Cleveland Center
Tue 08:24:26 AM 42.4036 -83.1897 288° West 231 266 6,500 -800 Descending Cleveland Center
Tue 08:24:45 AM 42.3992 -83.2008 242° Southwest 230 265 6,200 -1,674 Descending Cleveland Center
Tue 08:25:09 AM 42.3736 -83.2222 212° Southwest 212 244 5,300 -2,250 Descending Cleveland Center

Login

Don't have an account? Register now (free) for customized features, flight alerts, and more!